Center Junction, IA

6:33 AM CST on February 09, 2016 (GMT -0600)
OLIN | | Change Station
CLOSE
Current Station
Personal Weather Station
Location: Olin, IA
Elevation: 801 ft
Nearby Weather Stations
Active Advisory: Special Statement

Elev 801 ft 42.02 °N, 91.13 °W | Updated 13 seconds ago

Mostly Cloudy
Mostly Cloudy
13.8 °F
Feels Like -5 °F
N
23.0
Wind Variable Wind from NNW
Gusts 23.0 mph

Today
High -- | Low -- °F
--% Chance of Precip.
Yesterday
High -- | Low -- °F
Precip. -- in
Pressure 29.92 in
Visibility 10.0 miles
Clouds Scattered Clouds 1400 ft
Scattered Clouds 8000 ft
Overcast 9500 ft
Windchill -5 °F
Dew Point 9 °F
Humidity 80%
Rainfall 0.00 in
Snow Depth Not available.
7:08 AM 5:28 PM
New Moon, 1% visible
METAR KMXO 091215Z AUTO 34013KT 10SM SCT014 SCT080 OVC095 M11/M16 A2992 RMK AO2
Pressure 29.92 in
Visibility 10.0 miles
Clouds Scattered Clouds 1400 ft
Scattered Clouds 8000 ft
Overcast 9500 ft
Windchill -5 °F
Dew Point 9 °F
Humidity 80%
Rainfall 0.00 in
Snow Depth Not available.
7:08 AM 5:28 PM
New Moon, 1% visible
METAR KMXO 091215Z AUTO 34013KT 10SM SCT014 SCT080 OVC095 M11/M16 A2992 RMK AO2

10-Day Weather Forecast

Almanac

Astronomy

Feb. 09, 2016 Rise Set
Actual Time
Civil Twilight
Nautical Twilight
Astronomical Twilight
Moon
Length of Visible Light
Length of Day
Tomorrow will be .
, % of the Moon is Illuminated

Today's Extremes

State Highs State Lows

Community

WunderPhotos

Upload Photos

1,891,589 photos uploaded!

WunderBlog® & News

Nearby

Air Quality

  Air Quality AQ Index Pollutant
Not available.

Snow Depth

Station Depth Elevation

Earthquake Activity

City Distance Mag. Time & Date
Minimum magnitude displayed is 2.5.

Coastal Water Temperatures

Place Temperature

Stations

Nearby Weather Stations

Station Location Temp. Windchill Dew Point Humidity Wind Precip. Elev Updated Type
                   

Watches & Warnings

Special Statement
Issued: 5:05 AM CST Feb. 9, 2016 – National Weather Service

... Lingering light snow and shallow drifting during the morning
commute...

Areas of light snow will continue through the morning commute.
Additional snow totals will be light with a dusting to a few
tenths possible... especially near and east of the Mississippi
River. Wind gusts of 15 to 25 mph and the light nature of the snow
are resulting in shallow blowing and drifting... with limited
visibility of roadway markers and a few slick spots. Use caution
if traveling this morning.

Rp Kinney


505 am CST Tue Feb 9 2016

... Lingering light snow and shallow drifting during the morning
commute...

Areas of light snow will continue through the morning commute.
Additional snow totals will be light with a dusting to a few
tenths possible... especially near and east of the Mississippi
River. Wind gusts of 15 to 25 mph and the light nature of the snow
are resulting in shallow blowing and drifting... with limited
visibility of roadway markers and a few slick spots. Use caution
if traveling this morning.

Rp Kinney